Tiempo atmosférico en la estación meteorológica de Cervantes, Lugo (1020 m.)



Fecha
DESCASC
Temp. máxima en grados centígrados (hora)
DESCASC
Temp. mínima en grados centígrados (hora)
DESCASC
Temp. media en grados centígrados
DESCASC
Racha de viento máxima en m/sg (hora)
DESCASC
Velocidad máxima media en intervalos de 10 minutos(hora)
DESCASC
Precipitaciones diarias en mm
DESCASC
Precipitaciones de 00:00 a 06:00 en mm
DESCASC
Precipitaciones de 06:00 a 12:00 en mm
DESCASC
Precipitaciones de 12:00 a 18:00 en mm
DESCASC
Precipitaciones de 18:00 a 24:00 en mm
DESCASC
14-10-2018 11.3 (00:00) 4.3 (07:00) 7.8 10.28 (06:10) 4.17 (06:00) -- -- -- -- --
13-10-2018 20.8 (15:00) 11.3 (23:59) 16 16.11 (03:50) 8.61 (05:40) -- -- -- -- --
12-10-2018 16.5 (13:20) 10.6 (07:20) 13.6 14.17 (13:30) 6.94 (13:30) -- -- -- -- --
11-10-2018 15.4 (17:40) 10.1 (07:00) 12.8 17.22 (01:20) 8.89 (08:00) -- -- -- -- --
10-10-2018 19.7 (17:10) 9.1 (08:50) 14.4 12.78 (23:59) 6.11 (23:59) -- -- -- -- --
08-10-2018 20.1 (17:30) 3.6 (01:50) 11.9 11.67 (10:40) 5.83 (10:40) -- -- -- -- --
07-10-2018 13.6 (17:20) 3.6 (08:00) 8.6 5.28 (16:10) 2.22 (01:50) 0 0 0 0 0
06-10-2018 14.9 (03:40) 5.2 (23:10) 10 6.94 (15:50) 2.78 (05:30) 0 0 0 0 0
05-10-2018 24.7 (16:50) 13.1 (23:40) 18.9 6.94 (16:10) 3.33 (12:30) 0 0 0 0 0
04-10-2018 26.7 (17:10) 15.3 (00:00) 21 6.67 (00:10) 3.61 (00:40) 0 0 0 0 0
03-10-2018 26.7 (17:40) 15.1 (00:00) 20.9 13.89 (06:10) 7.5 (06:40) 0 0 0 0 0
02-10-2018 24.5 (17:00) 3.6 (00:00) 14 8.33 (13:40) 4.44 (13:10) 0 0 0 0 0
01-10-2018 19.5 (16:50) 5.8 (00:00) 12.7 4.17 (15:40) 2.22 (15:40) 0 0 0 0 0
30-09-2018 24.1 (14:10) 10.1 (00:00) 17.1 5.28 (16:00) 2.78 (21:20) 0 0 0 0 0
29-09-2018 26.5 (14:40) 14.7 (00:00) 20.6 9.72 (10:30) 5 (11:00) 0 0 0 0 0
28-09-2018 27.6 (17:40) 15.1 (00:00) 21.4 5.83 (12:00) 3.61 (12:20) 0 0 0 0 0
27-09-2018 27.7 (16:10) 15.1 (00:00) 21.4 10.83 (07:50) 5.28 (07:50) 0 0 0 0 0
26-09-2018 29.1 (17:30) 15.2 (00:00) 22.2 11.39 (03:00) 5 (13:30) 0 0 0 0 0
25-09-2018 26 (18:30) 8.8 (00:00) 17.4 6.67 (23:30) 3.33 (23:59) 0 0 0 0 0
24-09-2018 24.2 (18:20) 10.3 (00:00) 17.3 4.17 (17:10) 1.94 (17:10) 0 0 0 0 0
23-09-2018 26.8 (12:00) 14.3 (23:40) 20.5 5 (14:20) 2.5 (21:10) 0 0 0 0 0
22-09-2018 27.8 (17:30) 14.6 (00:30) 21.2 4.17 (18:30) 2.5 (21:20) 0 0 0 0 0
21-09-2018 20.3 (16:30) 10.9 (06:00) 15.6 3.61 (15:50) 1.67 (06:30) 0 0 0 0 0
20-09-2018 25.9 (14:00) 13.5 (07:40) 19.7 6.39 (13:30) 3.61 (13:00) 0 0 0 0 0
19-09-2018 23.8 (16:00) 10 (07:40) 16.9 4.17 (16:30) 2.5 (20:50) 0 0 0 0 0
18-09-2018 23.6 (17:00) 13.2 (06:40) 18.4 6.39 (13:40) 3.33 (13:40) 0 0 0 0 0
17-09-2018 26.8 (16:10) 15.7 (23:59) 21.2 9.17 (15:40) 4.17 (11:00) 0 0 0 0 0
16-09-2018 24.7 (17:20) 14.9 (00:00) 19.8 3.89 (11:00) 1.94 (14:10) 0 0 0 0 0
15-09-2018 27.9 (15:10) 13.1 (00:00) 20.5 7.22 (11:30) 3.61 (14:20) 0 0 0 0 0

Gráficas

Temp. máximas Temp. mínimas Temp. medias Precipitaciones Rachas de viento máximas Velocidades máximas media en intervalos de 10 minutos

Datos horarios

Fecha y hora oficial Temperatura (ºC) Velocidad del viento (km/h) Dirección del viento Racha (km/h) Dirección de racha Precipitación (mm) Presión (hPa) Tendencia (hPa) Humedad (%)
2018-10-14 23:00:00 5.9 2 Sur 6 Sur 0 -- -- 91
2018-10-14 22:00:00 5.2 3 Noroeste 8 Noroeste 0 -- -- 93
2018-10-14 21:00:00 5.5 3 Nordeste 11 Norte 0 -- -- 92
2018-10-14 20:00:00 6.6 6 Norte 14 Norte 0 -- -- 89
2018-10-14 19:00:00 7.4 8 Norte 17 Norte 0 -- -- 88
2018-10-14 18:00:00 8.2 4 Nordeste 16 Nordeste 0 -- -- 88
2018-10-14 17:00:00 7.7 5 Norte 22 Norte 0 -- -- 92
2018-10-14 16:00:00 8 8 Norte 22 Norte 0 -- -- 91
2018-10-14 15:00:00 7.7 10 Norte 27 Norte 0 -- -- 92
2018-10-14 14:00:00 7.7 4 Norte 14 Norte 0 -- -- 92
2018-10-14 13:00:00 7.2 10 Norte 21 Noroeste 0 -- -- 93
2018-10-14 12:00:00 6.2 3 Sudeste 10 Nordeste 0 -- -- 94
2018-10-14 11:00:00 5.2 4 Nordeste 17 Noroeste 0 -- -- 94
2018-10-14 10:00:00 4.5 6 Norte 17 Noroeste 0 -- -- 95
2018-10-14 09:00:00 4.4 5 Norte 12 Norte 0 -- -- 95
2018-10-14 08:00:00 4.3 3 Sudeste 13 Este 0 -- -- 94
2018-10-14 07:00:00 4.3 4 Norte 37 Noroeste 0 -- -- 94
2018-10-14 06:00:00 5.2 15 Norte 33 Norte 0 -- -- 92
2018-10-14 05:00:00 6.9 6 Norte 19 Norte 0 -- -- 94
2018-10-14 04:00:00 7.1 7 Norte 23 Norte 0 -- -- 94
2018-10-14 03:00:00 7.3 9 Norte 20 Norte 0 -- -- 95
2018-10-14 02:00:00 7.5 10 Norte 22 Sudeste 0 -- -- 95
2018-10-14 01:00:00 9 7 Noroeste 25 Noroeste 0 -- -- 94
2018-10-14 00:00:00 11.3 16 Norte 30 Sudoeste 0 -- -- 88
2018-10-13 23:00:00 15.8 18 Sudoeste 28 Sudeste 0 -- -- 77
2018-10-13 22:00:00 16.8 11 Sur 28 Oeste 0 -- -- 70
2018-10-13 21:00:00 16.9 12 Sudoeste 27 Sudoeste 0 -- -- 72
2018-10-13 20:00:00 17.2 14 Sudoeste 48 Sudoeste 0 -- -- 69
2018-10-13 19:00:00 18.2 13 Sudoeste 29 Sur 0 -- -- 63
2018-10-13 18:00:00 18.6 12 Sur 33 Sur 0 -- -- 62
2018-10-13 17:00:00 19.8 16 Sur 44 Sur 0 -- -- 59
2018-10-13 16:00:00 19.8 24 Sur 50 Sudoeste 0 -- -- 56
2018-10-13 15:00:00 20.8 21 Sur 49 Sur 0 -- -- 52
2018-10-13 14:00:00 20 18 Sur 39 Sur 0 -- -- 59
2018-10-13 13:00:00 19 22 Sur 36 Sur 0 -- -- 61
2018-10-13 12:00:00 16.5 17 Sur 30 Sur 0 -- -- 69
2018-10-13 11:00:00 15.9 14 Sur 40 Sur 0 -- -- 71
2018-10-13 10:00:00 15.3 21 Sur 43 Sur 0 -- -- 71
2018-10-13 09:00:00 15.3 23 Sur 46 Sur 0 -- -- 69
2018-10-13 08:00:00 15.6 26 Sur 49 Sur 0 -- -- 69
2018-10-13 07:00:00 15.8 22 Sur 55 Sur 0 -- -- 69
2018-10-13 06:00:00 15.9 23 Sur 57 Sudoeste 0 -- -- 70
2018-10-13 05:00:00 15.9 18 Sur 46 Sur 0 -- -- 70
2018-10-13 04:00:00 16.2 20 Sudoeste 58 Sur 0 -- -- 68
2018-10-13 03:00:00 15.9 14 Sudoeste 36 Sur 0 -- -- 71
2018-10-13 02:00:00 15 17 Sur 32 Sur 0 -- -- 74
2018-10-13 01:00:00 15.1 18 Sur 32 Sur 0 -- -- 73
2018-10-13 00:00:00 14.8 14 Sur 37 Sur 0 -- -- 74
2018-10-12 23:00:00 15 20 Sur 41 Sur 0 -- -- 75
2018-10-12 22:00:00 15.8 19 Sur 47 Sur 0 -- -- 71
2018-10-12 21:00:00 15.6 17 Sur 41 Sur 0 -- -- 72
2018-10-12 20:00:00 15.4 18 Sur 42 Sudoeste 0 -- -- 73
2018-10-12 19:00:00 15.6 20 Sur 42 Sur 0 -- -- 72
2018-10-12 18:00:00 15.5 15 Sur 33 Sur 0 -- -- 73
2018-10-12 17:00:00 15.7 14 Sur 34 Sur 0 -- -- 72
2018-10-12 16:00:00 14.9 21 Sur 37 Sur 0 -- -- 70
2018-10-12 15:00:00 15.7 18 Sur 41 Sur 0 -- -- 70
2018-10-12 14:00:00 15.2 23 Sur 51 Sur 0 -- -- 73
2018-10-12 13:00:00 16.1 18 Sur 36 Sur 0 -- -- 65
2018-10-12 12:00:00 15.7 17 Sur 41 Sur 0 -- -- 62
2018-10-12 11:00:00 12.3 19 Sur 41 Sur 0 -- -- 71
2018-10-12 10:00:00 11 20 Sur 41 Sur 0 -- -- 76
2018-10-12 09:00:00 10.7 19 Sur 40 Sur 0 -- -- 72
2018-10-12 08:00:00 11 20 Sur 40 Sur 0 -- -- 68
2018-10-12 07:00:00 10.8 18 Sudoeste 41 Sur 0 -- -- 64
2018-10-12 06:00:00 11.1 18 Sudoeste 33 Sur 0 -- -- 61
2018-10-12 05:00:00 11.1 14 Sudoeste 31 Sudoeste 0 -- -- 55
2018-10-12 04:00:00 11.3 16 Sudoeste 41 Sur 0 -- -- 51
2018-10-12 03:00:00 11.5 19 Sur 39 Sur 0 -- -- 47
2018-10-12 02:00:00 11.2 15 Sur 40 Sur 0 -- -- 59
2018-10-12 01:00:00 11.5 19 Sur 42 Sur 0 -- -- 58
2018-10-12 00:00:00 11.6 14 Sudoeste 36 Sur 0 -- -- 59
2018-10-11 23:00:00 11.5 15 Sur 33 Sudoeste 0 -- -- 64
2018-10-11 22:00:00 11.5 12 Sudoeste 29 Oeste 0 -- -- 66
2018-10-11 21:00:00 11.6 14 Sudoeste 36 Sur 0 -- -- 65
2018-10-11 20:00:00 12.1 12 Sudoeste 26 Sur 0 -- -- 64
2018-10-11 19:00:00 13.1 9 Sur 23 Sur 0 -- -- 65
2018-10-11 18:00:00 14 10 Sudoeste 33 Sudoeste 0 -- -- 62
2018-10-11 17:00:00 15.1 10 Oeste 28 Sur 0 -- -- 57
2018-10-11 16:00:00 13.8 10 Oeste 30 Sudoeste 0 -- -- 64
2018-10-11 15:00:00 12.2 8 Sudoeste 22 Sudoeste 0 -- -- 72
2018-10-11 14:00:00 12.3 6 Sur 14 Sur 0 -- -- 75
2018-10-11 13:00:00 10.8 4 Sudoeste 21 Sudoeste 0 -- -- 84
2018-10-11 12:00:00 10.5 6 Sur 26 Oeste 0 -- -- 84
2018-10-11 11:00:00 10.9 5 Sudoeste 28 Noroeste 0 -- -- 86
2018-10-11 10:00:00 10.9 9 Sur 31 Sur 0 -- -- 86
2018-10-11 09:00:00 10.5 11 Sur 46 Sur 0 -- -- 86
2018-10-11 08:00:00 10.6 32 Sur 54 Sur 0 -- -- 86
2018-10-11 07:00:00 10.1 18 Sur 44 Sur 0 -- -- 87
2018-10-11 06:00:00 10.3 18 Sur 51 Sur 0 -- -- 86
2018-10-11 05:00:00 10.7 20 Sur 40 Sudeste 0 -- -- 86
2018-10-11 04:00:00 13.2 14 Sur 33 Sur 0 -- -- 67
2018-10-11 03:00:00 13.5 12 Sudoeste 51 Sur 0 -- -- 64
2018-10-11 02:00:00 13.8 16 Sur 62 Sur 0 -- -- 60
2018-10-11 01:00:00 13.9 19 Sur 53 Sur 0 -- -- 57
2018-10-11 00:00:00 13.7 22 Sur 46 Sur 0 -- -- 59
2018-10-10 23:00:00 14 18 Sur 44 Sur 0 -- -- 59
2018-10-10 22:00:00 14.3 19 Sudoeste 36 Sudoeste 0 -- -- 53
2018-10-10 21:00:00 14.1 13 Sudoeste 30 Sur 0 -- -- 53
2018-10-10 20:00:00 14.4 8 Sudoeste 27 Sur 0 -- -- 52
2018-10-10 19:00:00 15.9 9 Sudoeste 25 Noroeste 0 -- -- 46
2018-10-10 18:00:00 17.7 14 Sudoeste 29 Sudoeste 0 -- -- 39
2018-10-10 17:00:00 18.8 12 Sur 32 Sur 0 -- -- 39
2018-10-10 16:00:00 17.5 12 Sur 28 Sur 0 -- -- 45
2018-10-10 15:00:00 16.4 16 Sur 35 Sur 0 -- -- 49
2018-10-10 14:00:00 17.1 13 Sur 34 Sur 0 -- -- 49
2018-10-10 13:00:00 15.3 19 Sur 35 Sur 0 -- -- 49
2018-10-10 12:00:00 15.4 13 Sur 31 Sur 0 -- -- 48
2018-10-10 11:00:00 12 16 Sur 32 Sur 0 -- -- 56
2018-10-10 10:00:00 11.1 15 Oeste 39 Sudoeste 0 -- -- 59
2018-10-10 09:00:00 9.3 9 Oeste 24 Sur 0 -- -- 63
2018-10-10 08:00:00 9.3 7 Oeste 19 Noroeste 0 -- -- 63
2018-10-10 07:00:00 9.5 5 Noroeste 31 Sur 0 -- -- 61
2018-10-10 06:00:00 10.1 15 Sur 31 Sur 0 -- -- 59
2018-10-10 05:00:00 9.5 13 Sur 33 Sudeste 0 -- -- 62
2018-10-10 04:00:00 9.9 17 Sur 34 Sur 0 -- -- 61
2018-10-10 03:00:00 10.4 12 Sur 29 Sudoeste 0 -- -- 58
2018-10-10 02:00:00 10.8 15 Sur 33 Sudeste 0 -- -- 56
2018-10-10 01:00:00 11.1 14 Sur 33 Sur 0 -- -- 53
2018-10-10 00:00:00 12.2 15 Sur 31 Sur 0 -- -- 47
2018-10-09 23:00:00 12.6 11 Sudoeste 31 Sur 0 -- -- 45
2018-10-09 22:00:00 13.3 12 Sur 31 Sur 0 -- -- 44
2018-10-09 21:00:00 13.7 10 Sur 23 Sur 0 -- -- 43
2018-10-09 20:00:00 14 9 Sudoeste 15 Oeste 0 -- -- 50
2018-10-09 19:00:00 15.2 6 Sudoeste 15 Sudoeste 0 -- -- 44
2018-10-09 18:00:00 20 9 Sudoeste 17 Sur 0 -- -- 36
2018-10-09 17:00:00 19.7 10 Sur 20 Sur 0 -- -- 37
2018-10-09 16:00:00 19.3 10 Sudoeste 25 Sur 0 -- -- 38
2018-10-09 15:00:00 18.3 11 Sur 31 Sur 0 -- -- 39
2018-10-09 14:00:00 17.2 10 Sudoeste 24 Oeste 0 -- -- 46
2018-10-09 13:00:00 15.9 13 Sudoeste 31 Sur 0 -- -- 50
2018-10-09 12:00:00 14.8 17 Sur 32 Sur 0 -- -- 55
2018-10-09 11:00:00 13 18 Sur 37 Sur 0 -- -- 60
2018-10-09 10:00:00 10.8 14 Sur 38 Sur 0 -- -- 70
2018-10-09 09:00:00 9.2 4 Sudoeste 21 Sudeste 0 -- -- 72
2018-10-09 08:00:00 9 3 Norte 15 Sur 0 -- -- 73
2018-10-09 07:00:00 9.9 3 Sudoeste 26 Sur 0 -- -- 68
2018-10-09 06:00:00 9.9 11 Sur 36 Sur 0 -- -- 68
2018-10-09 05:00:00 10.4 5 Sudoeste 18 Sur 0 -- -- 63
2018-10-09 04:00:00 11.1 4 Sur 20 Sur 0 -- -- 60
2018-10-09 03:00:00 11.1 4 Sudeste 19 Sur 0 -- -- 60
2018-10-09 02:00:00 11.4 9 Sur 36 Sudeste 0 -- -- 58
2018-10-09 01:00:00 11.8 17 Sur 37 Sur 0 -- -- 57
2018-10-09 00:00:00 12.1 16 Sur 36 Sur 0 -- -- 57
2018-10-08 23:00:00 12.8 13 Sudoeste 23 Sur 0 -- -- 54
2018-10-08 22:00:00 12.1 4 Sudoeste 9 Sudoeste 0 -- -- 58
2018-10-08 21:00:00 11.7 2 Oeste 12 Norte 0 -- -- 65
2018-10-08 20:00:00 13.3 7 Norte 13 Norte 0 -- -- 57
2018-10-08 19:00:00 14.5 6 Norte 10 Norte 0 -- -- 50
2018-10-08 18:00:00 19.1 5 Nordeste 13 Nordeste 0 -- -- 39
2018-10-08 17:00:00 19.2 6 Nordeste 13 Nordeste 0 -- -- 41
2018-10-08 16:00:00 19.2 4 Este 13 Nordeste 0 -- -- 42
2018-10-08 15:00:00 17.8 6 Sur 15 Sur 0 -- -- 39
2018-10-08 14:00:00 17.6 6 Sur 23 Sur 0 -- -- 42
2018-10-08 13:00:00 17 13 Sur 28 Sur 0 -- -- 41
2018-10-08 12:00:00 15.6 17 Sur 35 Sur 0 -- -- 43
2018-10-08 11:00:00 13.8 20 Sur 42 Sudeste 0 -- -- 48
2018-10-08 10:00:00 11 13 Sur 33 Sur 0 -- -- 57
2018-10-08 09:00:00 7.7 8 Sur 20 Sur 0 -- -- 66
2018-10-08 08:00:00 7.3 5 Sur 22 Sur 0 -- -- 67
2018-10-08 07:00:00 7.6 6 Sudoeste 26 Sur 0 -- -- 64
2018-10-08 06:00:00 7.2 9 Sur 19 Sur 0 -- -- 64
2018-10-08 05:00:00 7.6 2 Norte 9 Sur 0 -- -- 61
2018-10-08 04:00:00 8.3 4 Sudoeste 10 Sudoeste 0 -- -- 58
2018-10-08 03:00:00 7.8 6 Sudoeste 15 Sur 0 -- -- 60
2018-10-08 02:00:00 3.9 0 Calma 4 Sudeste 0 -- -- 90
2018-10-08 01:00:00 3.9 0 Calma 4 Noroeste 0 -- -- 89
2018-10-08 00:00:00 4 0 Calma 5 Norte 0 -- -- 88
2018-10-07 23:00:00 4.7 3 Norte 4 Norte 0 -- -- 84
2018-10-07 22:00:00 5 0 Calma 6 Noroeste 0 -- -- 83
2018-10-07 21:00:00 5.7 2 Norte 13 Noroeste 0 -- -- 78
2018-10-07 20:00:00 6.9 7 Norte 13 Noroeste 0 -- -- 74
2018-10-07 19:00:00 8.3 7 Norte 13 Noroeste 0 -- -- 68
2018-10-07 18:00:00 12.8 5 Norte 16 Noroeste 0 -- -- 53
2018-10-07 17:00:00 13.2 6 Norte 19 Noroeste 0 -- -- 48
2018-10-07 16:00:00 12.9 6 Norte 17 Norte 0 -- -- 54
2018-10-07 15:00:00 12.3 6 Norte 18 Nordeste 0 -- -- 54
2018-10-07 14:00:00 12.2 5 Sudoeste 16 Noroeste 0 -- -- 54
2018-10-07 13:00:00 11.3 5 Nordeste 16 Sudeste 0 -- -- 65
2018-10-07 12:00:00 10 5 Sur 14 Sur 0 -- -- 68
2018-10-07 11:00:00 8.3 4 Sur 10 Sudeste 0 -- -- 73
2018-10-07 10:00:00 5.7 3 Norte 14 Norte 0 -- -- 84
2018-10-07 09:00:00 4.6 7 Norte 13 Norte 0 -- -- 85
2018-10-07 08:00:00 3.6 3 Noroeste 13 Noroeste 0 -- -- 88
2018-10-07 07:00:00 4.4 4 Norte 10 Norte 0 -- -- 88
2018-10-07 06:00:00 4.3 3 Noroeste 14 Noroeste 0 -- -- 89
2018-10-07 05:00:00 4.3 6 Norte 13 Noroeste 0 -- -- 86
2018-10-07 04:00:00 4.2 6 Norte 14 Norte 0 -- -- 85
2018-10-07 03:00:00 4.2 6 Noroeste 17 Nordeste 0 -- -- 89
2018-10-07 02:00:00 4.3 8 Norte 19 Norte 0 -- -- 91
2018-10-07 01:00:00 4.9 5 Norte 15 Norte 0 -- -- 90
2018-10-07 00:00:00 5.2 6 Norte 14 Norte 0 -- -- 91
2018-10-06 23:00:00 5.3 7 Norte 17 Nordeste 0 -- -- 90
2018-10-06 22:00:00 5.9 4 Norte 13 Este 0 -- -- 90
2018-10-06 21:00:00 6.2 4 Norte 19 Noroeste 0 -- -- 89
2018-10-06 20:00:00 6.6 7 Norte 17 Nordeste 0 -- -- 88
2018-10-06 19:00:00 8 4 Norte 10 Nordeste 0 -- -- 87
2018-10-06 18:00:00 8.3 3 Nordeste 12 Nordeste 0 -- -- 88
2018-10-06 17:00:00 7.5 5 Norte 21 Norte 0 -- -- 90
2018-10-06 16:00:00 8.3 8 Norte 25 Este 0 -- -- 89
2018-10-06 15:00:00 9.2 5 Norte 21 Norte 0 -- -- 90
2018-10-06 14:00:00 10.8 8 Norte 22 Noroeste 0 -- -- 82
2018-10-06 13:00:00 11.8 9 Norte 23 Norte 0 -- -- 74
2018-10-06 12:00:00 13.4 6 Norte 19 Noroeste 0 -- -- 68
2018-10-06 11:00:00 10 6 Nordeste 14 Norte 0 -- -- 84
2018-10-06 10:00:00 9.4 4 Este 20 Nordeste 0 -- -- 83
2018-10-06 09:00:00 8.6 8 Norte 17 Norte 0 -- -- 80
2018-10-06 08:00:00 8.4 2 Oeste 7 Noroeste 0 -- -- 73
2018-10-06 07:00:00 9.6 3 Sudoeste 18 Norte 0 -- -- 66
2018-10-06 06:00:00 13.5 5 Sudoeste 21 Sur 0 -- -- 48
2018-10-06 05:00:00 14.3 8 Sudoeste 23 Sudoeste 0 -- -- 42
2018-10-06 04:00:00 14.8 7 Sudoeste 18 Oeste 0 -- -- 40
2018-10-06 03:00:00 13.9 2 Este 18 Sur 0 -- -- 40
2018-10-06 02:00:00 14.8 8 Sudoeste 18 Sur 0 -- -- 37
2018-10-06 01:00:00 14.1 5 Oeste 12 Noroeste 0 -- -- 48
2018-10-06 00:00:00 13.3 4 Noroeste 6 Norte 0 -- -- 53
2018-10-05 23:00:00 13.8 3 Norte 9 Noroeste 0 -- -- 50
2018-10-05 22:00:00 14.4 4 Noroeste 12 Norte 0 -- -- 58
2018-10-05 21:00:00 17.1 6 Noroeste 15 Norte 0 -- -- 41
2018-10-05 20:00:00 18.3 6 Norte 14 Norte 0 -- -- 38
2018-10-05 19:00:00 19.4 6 Norte 15 Nordeste 0 -- -- 35
2018-10-05 18:00:00 22.8 8 Norte 18 Norte 0 -- -- 28
2018-10-05 17:00:00 24.6 5 Sur 25 Noroeste 0 -- -- 24
2018-10-05 16:00:00 23.8 8 Oeste 24 Sudoeste 0 -- -- 22
2018-10-05 15:00:00 23.5 10 Sudoeste 23 Sudoeste 0 -- -- 23
2018-10-05 14:00:00 22.9 4 Sudeste 20 Sur 0 -- -- 42
2018-10-05 13:00:00 22.8 10 Sur 22 Sudoeste 0 -- -- 41
2018-10-05 12:00:00 22.7 9 Sur 14 Sur 0 -- -- 42
2018-10-05 11:00:00 21.9 4 Sur 12 Sur 0 -- -- 45
2018-10-05 10:00:00 17.7 3 Sur 11 Oeste 0 -- -- 56
2018-10-05 09:00:00 14.7 3 Noroeste 8 Norte 0 -- -- 59
2018-10-05 08:00:00 15.1 3 Norte 8 Norte 0 -- -- 57
2018-10-05 07:00:00 14.8 2 Norte 5 Noroeste 0 -- -- 56
2018-10-05 06:00:00 15.5 3 Norte 5 Norte 0 -- -- 54
2018-10-05 05:00:00 15.9 0 Calma 5 Noroeste 0 -- -- 51
2018-10-05 04:00:00 16 0 Calma 4 Sudeste 0 -- -- 54
2018-10-05 03:00:00 16.1 2 Norte 5 Noroeste 0 -- -- 57
2018-10-05 02:00:00 15.5 0 Calma 3 Noroeste 0 -- -- 59
2018-10-05 01:00:00 15.7 0 Calma 4 Noroeste 0 -- -- 59
2018-10-05 00:00:00 15.3 0 Calma 8 Norte 0 -- -- 60
2018-10-04 23:00:00 17.6 5 Norte 11 Norte 0 -- -- 51
2018-10-04 22:00:00 18 8 Norte 12 Norte 0 -- -- 49
2018-10-04 21:00:00 18.6 8 Norte 14 Norte 0 -- -- 45
2018-10-04 20:00:00 19.9 8 Norte 13 Norte 0 -- -- 42
2018-10-04 19:00:00 21 6 Norte 12 Nordeste 0 -- -- 40
2018-10-04 18:00:00 25.9 5 Norte 12 Nordeste 0 -- -- 30
2018-10-04 17:00:00 26.6 4 Nordeste 14 Este 0 -- -- 29
2018-10-04 16:00:00 24.9 5 Este 17 Nordeste 0 -- -- 32
2018-10-04 15:00:00 24.6 7 Nordeste 15 Nordeste 0 -- -- 33
2018-10-04 14:00:00 25.1 5 Nordeste 15 Nordeste 0 -- -- 31
2018-10-04 13:00:00 25.4 5 Nordeste 12 Sudeste 0 -- -- 31
2018-10-04 12:00:00 24.6 5 Sur 8 Sur 0 -- -- 35
2018-10-04 11:00:00 23.5 3 Sur 7 Sur 0 -- -- 39
2018-10-04 10:00:00 19.4 0 Calma 3 Sur 0 -- -- 43
2018-10-04 09:00:00 16.4 0 Calma 4 Sur 0 -- -- 44
2018-10-04 08:00:00 15.5 0 Calma 4 Nordeste 0 -- -- 44
2018-10-04 07:00:00 16 0 Calma 4 Norte 0 -- -- 43
2018-10-04 06:00:00 15.5 2 Este 4 Nordeste 0 -- -- 44
2018-10-04 05:00:00 16.4 0 Calma 6 Sudeste 0 -- -- 42
2018-10-04 04:00:00 17.3 0 Calma 6 Noroeste 0 -- -- 39
2018-10-04 03:00:00 17.7 2 Sudeste 12 Sur 0 -- -- 37
2018-10-04 02:00:00 17.1 4 Sudoeste 18 Sur 0 -- -- 40
2018-10-04 01:00:00 17.9 12 Sudoeste 24 Sur 0 -- -- 40
2018-10-04 00:00:00 18 9 Sur 19 Sur 0 -- -- 40
2018-10-03 23:00:00 18.1 2 Noroeste 6 Oeste 0 -- -- 39
2018-10-03 22:00:00 18.2 2 Norte 6 Este 0 -- -- 42
2018-10-03 21:00:00 19.4 2 Sudeste 9 Sudeste 0 -- -- 40
2018-10-03 20:00:00 19.8 2 Noroeste 12 Oeste 0 -- -- 40
2018-10-03 19:00:00 20.6 5 Oeste 20 Sur 0 -- -- 38
2018-10-03 18:00:00 26.6 8 Sur 21 Sudoeste 0 -- -- 26
2018-10-03 17:00:00 26.3 11 Sur 27 Sur 0 -- -- 27
2018-10-03 16:00:00 25.4 13 Sur 25 Sur 0 -- -- 28
2018-10-03 15:00:00 24.3 15 Sur 32 Sur 0 -- -- 32
2018-10-03 14:00:00 23.4 21 Sur 37 Sur 0 -- -- 34
2018-10-03 13:00:00 22.5 20 Sur 40 Sur 0 -- -- 36
2018-10-03 12:00:00 21.2 20 Sur 39 Sur 0 -- -- 37
2018-10-03 11:00:00 19.6 22 Sur 41 Sur 0 -- -- 41
2018-10-03 10:00:00 17.6 21 Sur 39 Sudoeste 0 -- -- 42
2018-10-03 09:00:00 15.6 23 Sur 42 Sudeste 0 -- -- 45
2018-10-03 08:00:00 15.3 23 Sur 46 Sur 0 -- -- 45
2018-10-03 07:00:00 15.4 26 Sur 50 Sur 0 -- -- 43
2018-10-03 06:00:00 15.5 26 Sur 46 Sur 0 -- -- 41
2018-10-03 05:00:00 15.4 22 Sur 43 Sur 0 -- -- 35
2018-10-03 04:00:00 15.3 20 Sudoeste 45 Sur 0 -- -- 31
2018-10-03 03:00:00 15.8 22 Sur 41 Sur 0 -- -- 27
2018-10-03 02:00:00 15.6 22 Sur 39 Sur 0 -- -- 28
2018-10-03 01:00:00 16 18 Sudoeste 36 Sur 0 -- -- 28
2018-10-03 00:00:00 15.6 12 Sur 20 Sur 0 -- -- 27
2018-10-02 23:00:00 15.2 3 Sudoeste 9 Sur 0 -- -- 28
2018-10-02 22:00:00 14.9 2 Norte 5 Noroeste 0 -- -- 42
2018-10-02 21:00:00 13.7 0 Calma 5 Noroeste 0 -- -- 54
2018-10-02 20:00:00 15.3 0 Calma 15 Norte 0 -- -- 48
2018-10-02 19:00:00 17 7 Norte 14 Norte 0 -- -- 39
2018-10-02 18:00:00 23.7 3 Norte 15 Oeste 0 -- -- 24
2018-10-02 17:00:00 24.5 4 Sudoeste 11 Oeste 0 -- -- 18
2018-10-02 16:00:00 23.3 6 Oeste 15 Oeste 0 -- -- 19
2018-10-02 15:00:00 22.4 6 Sudoeste 25 Sur 0 -- -- 15
2018-10-02 14:00:00 22.1 13 Sur 30 Sur 0 -- -- 10
2018-10-02 13:00:00 20.6 15 Sur 27 Sudoeste 0 -- -- 18
2018-10-02 12:00:00 18.5 8 Sudoeste 16 Sudeste 0 -- -- 27
2018-10-02 11:00:00 15.5 2 Sur 6 Sur 0 -- -- 38
2018-10-02 10:00:00 12.4 2 Sudeste 9 Sur 0 -- -- 38
2018-10-02 09:00:00 9.2 4 Este 10 Sudeste 0 -- -- 41
2018-10-02 08:00:00 8.4 4 Este 8 Oeste 0 -- -- 43
2018-10-02 07:00:00 7.4 3 Oeste 8 Sudoeste 0 -- -- 54
2018-10-02 06:00:00 3.6 0 Calma 4 Norte 0 -- -- 95
2018-10-02 05:00:00 5.2 0 Calma 5 Noroeste 0 -- -- 95
2018-10-02 04:00:00 6.4 2 Noroeste 4 Oeste 0 -- -- 95
2018-10-02 03:00:00 6.5 0 Calma 3 Sudeste 0 -- -- 94
2018-10-02 02:00:00 6.8 0 Calma 4 Noroeste 0 -- -- 93
2018-10-02 01:00:00 7.5 0 Calma 3 Noroeste 0 -- -- 91
2018-10-02 00:00:00 7.8 0 Calma 5 Norte 0 -- -- 90
2018-10-01 23:00:00 8.6 0 Calma 3 Noroeste 0 -- -- 88
2018-10-01 22:00:00 9.9 0 Calma 8 Norte 0 -- -- 81
2018-10-01 21:00:00 11.4 3 Norte 13 Noroeste 0 -- -- 75
2018-10-01 20:00:00 13.3 0 Calma 8 Noroeste 0 -- -- 68
2018-10-01 19:00:00 16.3 0 Calma 11 Noroeste 0 -- -- 58
2018-10-01 18:00:00 18.2 6 Norte 14 Norte 0 -- -- 51
2018-10-01 17:00:00 19 7 Norte 15 Noroeste 0 -- -- 47
2018-10-01 16:00:00 18.5 6 Norte 15 Norte 0 -- -- 47
2018-10-01 15:00:00 18.8 3 Este 11 Este 0 -- -- 49
2018-10-01 14:00:00 18.2 5 Sudeste 12 Sudoeste 0 -- -- 49
2018-10-01 13:00:00 16.1 4 Nordeste 14 Nordeste 0 -- -- 56
2018-10-01 12:00:00 14.9 4 Sur 14 Sudeste 0 -- -- 61
2018-10-01 11:00:00 13.5 3 Sur 10 Sur 0 -- -- 70
2018-10-01 10:00:00 7.9 3 Sudoeste 5 Sur 0 -- -- 91
2018-10-01 09:00:00 5.8 0 Calma 4 Oeste 0 -- -- 94
2018-10-01 08:00:00 6.3 0 Calma 10 Norte 0 -- -- 91
2018-10-01 07:00:00 6 0 Calma 8 Norte 0 -- -- 94
2018-10-01 06:00:00 6.7 5 Norte 10 Norte 0 -- -- 93
2018-10-01 05:00:00 6.8 2 Norte 11 Norte 0 -- -- 92
2018-10-01 04:00:00 7.3 2 Norte 9 Noroeste 0 -- -- 92
2018-10-01 03:00:00 8.1 0 Calma 9 Norte 0 -- -- 94
2018-10-01 02:00:00 7.8 2 Norte 4 Norte 0 -- -- 91
2018-10-01 01:00:00 9.4 0 Calma 8 Sur 0 -- -- 91
2018-10-01 00:00:00 10.1 3 Sur 14 Oeste 0 -- -- 90
2018-09-30 23:00:00 10.4 2 Sudoeste 6 Noroeste 0 -- -- 85
2018-09-30 22:00:00 11.9 5 Norte 17 Norte 0 -- -- 79
2018-09-30 21:00:00 13.4 9 Norte 15 Noroeste 0 -- -- 74
2018-09-30 20:00:00 15.5 7 Norte 18 Norte 0 -- -- 65
2018-09-30 19:00:00 17.6 7 Norte 18 Este 0 -- -- 55
2018-09-30 18:00:00 22.5 7 Norte 15 Norte 0 -- -- 38
2018-09-30 17:00:00 22.9 5 Nordeste 13 Nordeste 0 -- -- 37
2018-09-30 16:00:00 22.8 6 Este 19 Este 0 -- -- 38
2018-09-30 15:00:00 22.9 5 Este 13 Sudeste 0 -- -- 41
2018-09-30 14:00:00 23.3 5 Este 13 Este 0 -- -- 34
2018-09-30 13:00:00 23.3 5 Sur 12 Sur 0 -- -- 47
2018-09-30 12:00:00 21.5 4 Sur 8 Sudoeste 0 -- -- 53
2018-09-30 11:00:00 21.5 3 Sur 6 Sur 0 -- -- 55
2018-09-30 10:00:00 19.6 0 Calma 3 Sur 0 -- -- 51
2018-09-30 09:00:00 14 0 Calma 4 Sudoeste 0 -- -- 66
2018-09-30 08:00:00 13 0 Calma 3 Norte 0 -- -- 74
2018-09-30 07:00:00 12.8 0 Calma 3 Noroeste 0 -- -- 80
2018-09-30 06:00:00 13.6 0 Calma 5 Este 0 -- -- 69
2018-09-30 05:00:00 14.2 0 Calma 4 Noroeste 0 -- -- 63
2018-09-30 04:00:00 13.7 0 Calma 2 Noroeste 0 -- -- 89
2018-09-30 03:00:00 13.8 0 Calma 2 Noroeste 0 -- -- 90
2018-09-30 02:00:00 14.3 0 Calma 2 Norte 0 -- -- 90
2018-09-30 01:00:00 14.5 0 Calma 4 Noroeste 0 -- -- 82
2018-09-30 00:00:00 14.7 0 Calma 3 Noroeste 0 -- -- 85
2018-09-29 23:00:00 15.6 0 Calma 4 Norte 0 -- -- 75
2018-09-29 22:00:00 16.8 0 Calma 9 Norte 0 -- -- 66
2018-09-29 21:00:00 17.8 7 Norte 12 Noroeste 0 -- -- 72
2018-09-29 20:00:00 18.7 6 Norte 12 Norte 0 -- -- 67
2018-09-29 19:00:00 19.6 7 Norte 13 Norte 0 -- -- 57
2018-09-29 18:00:00 21 6 Norte 12 Sur 0 -- -- 50
2018-09-29 17:00:00 25 5 Sur 9 Sur 0 -- -- 47
2018-09-29 16:00:00 22.6 3 Norte 9 Norte 0 -- -- 52
2018-09-29 15:00:00 26.5 6 Sur 17 Sur 0 -- -- 36
2018-09-29 14:00:00 26.1 10 Sur 21 Sur 0 -- -- 37
2018-09-29 13:00:00 25.2 13 Sur 27 Sur 0 -- -- 39
2018-09-29 12:00:00 23.8 15 Sur 31 Sudeste 0 -- -- 43
2018-09-29 11:00:00 22.2 18 Sur 35 Sur 0 -- -- 45
2018-09-29 10:00:00 20.1 16 Sur 33 Sur 0 -- -- 51
2018-09-29 09:00:00 17.7 14 Sur 31 Sur 0 -- -- 57
2018-09-29 08:00:00 17.4 14 Sur 28 Sur 0 -- -- 58
2018-09-29 07:00:00 17.5 11 Sur 33 Sur 0 -- -- 57
2018-09-29 06:00:00 17.6 15 Sur 28 Sur 0 -- -- 55
2018-09-29 05:00:00 17.5 10 Sur 25 Sur 0 -- -- 54
2018-09-29 04:00:00 17.5 8 Sur 30 Sur 0 -- -- 56
2018-09-29 03:00:00 17.9 10 Sur 23 Sur 0 -- -- 58
2018-09-29 02:00:00 18.5 12 Sur 25 Sur 0 -- -- 56
2018-09-29 01:00:00 17.9 4 Sudoeste 11 Sudoeste 0 -- -- 63
2018-09-29 00:00:00 16.9 0 Calma 3 Noroeste 0 -- -- 75
2018-09-28 23:00:00 17.3 2 Norte 5 Este 0 -- -- 76
2018-09-28 22:00:00 17.9 3 Norte 9 Norte 0 -- -- 72
2018-09-28 21:00:00 18.9 8 Norte 11 Norte 0 -- -- 69
2018-09-28 20:00:00 20 6 Norte 14 Noroeste 0 -- -- 65
2018-09-28 19:00:00 23.1 2 Nordeste 8 Norte 0 -- -- 54
2018-09-28 18:00:00 26.9 4 Nordeste 13 Nordeste 0 -- -- 44
2018-09-28 17:00:00 25.7 4 Este 14 Norte 0 -- -- 47
2018-09-28 16:00:00 24.6 5 Norte 17 Sur 0 -- -- 48
2018-09-28 15:00:00 26 6 Sur 19 Sur 0 -- -- 39
2018-09-28 14:00:00 25.8 10 Sur 18 Sur 0 -- -- 43
2018-09-28 13:00:00 23.3 10 Sur 21 Sur 0 -- -- 48
2018-09-28 12:00:00 24.6 11 Sur 21 Sur 0 -- -- 45
2018-09-28 11:00:00 23.6 4 Sur 10 Sur 0 -- -- 48
2018-09-28 10:00:00 20.7 3 Sudeste 11 Sur 0 -- -- 50
2018-09-28 09:00:00 17.1 2 Nordeste 8 Norte 0 -- -- 60
2018-09-28 08:00:00 17.6 3 Norte 12 Sur 0 -- -- 58
2018-09-28 07:00:00 17.3 3 Norte 10 Norte 0 -- -- 57
2018-09-28 06:00:00 17.1 3 Norte 10 Norte 0 -- -- 57
2018-09-28 05:00:00 16.5 0 Calma 7 Sur 0 -- -- 60
2018-09-28 04:00:00 16.7 4 Norte 9 Norte 0 -- -- 60
2018-09-28 03:00:00 16.9 4 Norte 7 Norte 0 -- -- 61
2018-09-28 02:00:00 16.4 4 Norte 6 Norte 0 -- -- 62
2018-09-28 01:00:00 16.8 4 Norte 8 Norte 0 -- -- 59
2018-09-28 00:00:00 16.6 3 Norte 6 Norte 0 -- -- 64
2018-09-27 23:00:00 16.9 0 Calma 8 Norte 0 -- -- 70
2018-09-27 22:00:00 16.7 0 Calma 12 Noroeste 0 -- -- 72
2018-09-27 21:00:00 17.2 7 Noroeste 26 Oeste 0 -- -- 72
2018-09-27 20:00:00 19.6 2 Nordeste 16 Sudoeste 0 -- -- 50
2018-09-27 19:00:00 20.3 3 Oeste 18 Sudeste 0 -- -- 49
2018-09-27 18:00:00 21.1 5 Sur 22 Sur 0 -- -- 55
2018-09-27 17:00:00 27 6 Sur 17 Sur 0 -- -- 43
2018-09-27 16:00:00 27 5 Noroeste 17 Sur 0 -- -- 41
2018-09-27 15:00:00 25.8 9 Sudoeste 23 Sur 0 -- -- 39
2018-09-27 14:00:00 25.1 11 Sur 20 Sudeste 0 -- -- 48
2018-09-27 13:00:00 23.8 7 Oeste 17 Sudoeste 0 -- -- 49
2018-09-27 12:00:00 19.5 10 Sudoeste 19 Sur 0 -- -- 66
2018-09-27 11:00:00 16.4 5 Oeste 14 Oeste 0 -- -- 75
2018-09-27 10:00:00 15.3 4 Norte 8 Noroeste 0 -- -- 83
2018-09-27 09:00:00 15.6 9 Oeste 30 Oeste 0 -- -- 74
2018-09-27 08:00:00 16.5 9 Sudoeste 39 Oeste 0 -- -- 71
2018-09-27 07:00:00 19.9 12 Sudoeste 29 Sur 0 -- -- 48
2018-09-27 06:00:00 19.2 10 Sudoeste 21 Sudoeste 0 -- -- 49
2018-09-27 05:00:00 18.8 4 Noroeste 13 Oeste 0 -- -- 50
2018-09-27 04:00:00 19 4 Noroeste 12 Noroeste 0 -- -- 48
2018-09-27 03:00:00 19.4 4 Oeste 16 Sudoeste 0 -- -- 46
2018-09-27 02:00:00 19.4 3 Sudoeste 9 Sudoeste 0 -- -- 47
2018-09-27 01:00:00 19.5 3 Norte 6 Norte 0 -- -- 49
2018-09-27 00:00:00 18.9 4 Norte 13 Norte 0 -- -- 51
2018-09-26 23:00:00 19.7 6 Norte 11 Noroeste 0 -- -- 48
2018-09-26 22:00:00 20.4 4 Norte 6 Norte 0 -- -- 44
2018-09-26 21:00:00 21 3 Norte 8 Norte 0 -- -- 43
2018-09-26 20:00:00 22.4 5 Norte 11 Norte 0 -- -- 40
2018-09-26 19:00:00 24.2 3 Nordeste 18 Nordeste 0 -- -- 37
2018-09-26 18:00:00 28.3 4 Sur 8 Sur 0 -- -- 31
2018-09-26 17:00:00 25.9 2 Sudeste 24 Sur 0 -- -- 35
2018-09-26 16:00:00 26.5 13 Sur 25 Sur 0 -- -- 32
2018-09-26 15:00:00 25.2 14 Sur 28 Sur 0 -- -- 33
2018-09-26 14:00:00 24.6 14 Sur 34 Sur 0 -- -- 31
2018-09-26 13:00:00 23.2 13 Sur 28 Sur 0 -- -- 31
2018-09-26 12:00:00 20.8 8 Norte 30 Sur 0 -- -- 31
2018-09-26 11:00:00 20 6 Sur 19 Sur 0 -- -- 29
2018-09-26 10:00:00 19.1 3 Este 18 Noroeste 0 -- -- 30
2018-09-26 09:00:00 16.1 5 Nordeste 15 Oeste 0 -- -- 32
2018-09-26 08:00:00 15.4 4 Este 17 Sur 0 -- -- 33
2018-09-26 07:00:00 15.8 8 Noroeste 16 Norte 0 -- -- 31
2018-09-26 06:00:00 15.9 4 Este 23 Sur 0 -- -- 30
2018-09-26 05:00:00 15.9 5 Sudeste 24 Sur 0 -- -- 31
2018-09-26 04:00:00 16.9 6 Oeste 32 Sur 0 -- -- 31
2018-09-26 03:00:00 17.1 14 Sur 41 Sur 0 -- -- 33
2018-09-26 02:00:00 16.9 8 Sudoeste 30 Sur 0 -- -- 35
2018-09-26 01:00:00 17.4 13 Sur 29 Sur 0 -- -- 35
2018-09-26 00:00:00 17.3 12 Sur 24 Sur 0 -- -- 37
2018-09-25 23:00:00 16.4 4 Sur 11 Sur 0 -- -- 55
2018-09-25 22:00:00 14.7 0 Calma 5 Norte 0 -- -- 66
2018-09-25 21:00:00 15.6 3 Noroeste 5 Noroeste 0 -- -- 64
2018-09-25 20:00:00 17 0 Calma 11 Noroeste 0 -- -- 60
2018-09-25 19:00:00 20.1 0 Calma 6 Oeste 0 -- -- 53
2018-09-25 18:00:00 24.5 4 Nordeste 12 Este 0 -- -- 41
2018-09-25 17:00:00 23.9 4 Nordeste 13 Sudoeste 0 -- -- 45
2018-09-25 16:00:00 23.2 4 Este 10 Sudeste 0 -- -- 49
2018-09-25 15:00:00 22.7 4 Sur 16 Sudoeste 0 -- -- 48
2018-09-25 14:00:00 22.9 9 Sur 19 Sudeste 0 -- -- 44
2018-09-25 13:00:00 22 9 Sur 18 Sur 0 -- -- 46
2018-09-25 12:00:00 19.6 7 Sur 15 Sur 0 -- -- 49
2018-09-25 11:00:00 18.2 5 Sur 10 Sudoeste 0 -- -- 51
2018-09-25 10:00:00 16.7 0 Calma 5 Sudeste 0 -- -- 56
2018-09-25 09:00:00 10.4 2 Este 8 Este 0 -- -- 73
2018-09-25 08:00:00 10.8 3 Este 7 Este 0 -- -- 76
2018-09-25 07:00:00 10.2 0 Calma 8 Sur 0 -- -- 81
2018-09-25 06:00:00 10.8 0 Calma 8 Sudeste 0 -- -- 84
2018-09-25 05:00:00 10.2 4 Sudoeste 9 Sur 0 -- -- 97
2018-09-25 04:00:00 9.4 3 Nordeste 6 Sur 0 -- -- 97
2018-09-25 03:00:00 9.5 0 Calma 4 Norte 0 -- -- 96
2018-09-25 02:00:00 9.5 2 Noroeste 5 Noroeste 0 -- -- 95
2018-09-25 01:00:00 10.1 0 Calma 4 Noroeste 0 -- -- 94
2018-09-25 00:00:00 10.5 0 Calma 3 Sudoeste 0 -- -- 93
2018-09-24 23:00:00 10.8 0 Calma 4 Sudeste 0 -- -- 92
2018-09-24 22:00:00 11.7 0 Calma 3 Este 0 -- -- 90
2018-09-24 21:00:00 13.3 0 Calma 3 Este 0 -- -- 85
2018-09-24 20:00:00 15.9 0 Calma 4 Sur 0 -- -- 77
2018-09-24 19:00:00 19.2 0 Calma 7 Nordeste 0 -- -- 65
2018-09-24 18:00:00 22.7 5 Nordeste 15 Norte 0 -- -- 55
2018-09-24 17:00:00 23 5 Nordeste 14 Nordeste 0 -- -- 53
2018-09-24 16:00:00 23.6 4 Nordeste 12 Sudeste 0 -- -- 54
2018-09-24 15:00:00 22.6 4 Este 13 Sudeste 0 -- -- 58
2018-09-24 14:00:00 21.2 4 Este 12 Sudeste 0 -- -- 61
2018-09-24 13:00:00 20.3 4 Sur 10 Sur 0 -- -- 63
2018-09-24 12:00:00 18.5 4 Sur 8 Sur 0 -- -- 71
2018-09-24 11:00:00 14.1 2 Sudeste 8 Sudeste 0 -- -- 87
2018-09-24 10:00:00 13.1 2 Este 5 Sudeste 0 -- -- 90
2018-09-24 09:00:00 12.7 2 Norte 5 Noroeste 0 -- -- 93
2018-09-24 08:00:00 12.7 0 Calma 5 Norte 0 -- -- 93
2018-09-24 07:00:00 13.1 0 Calma 4 Norte 0 -- -- 93
2018-09-24 06:00:00 13.1 2 Noroeste 10 Noroeste 0 -- -- 93
2018-09-24 05:00:00 13.4 2 Noroeste 6 Noroeste 0 -- -- 94
2018-09-24 04:00:00 13.3 2 Norte 5 Norte 0 -- -- 94
2018-09-24 03:00:00 13 0 Calma 4 Norte 0 -- -- 94
2018-09-24 02:00:00 13.5 0 Calma 4 Nordeste 0 -- -- 94
2018-09-24 01:00:00 14.1 0 Calma 3 Noroeste 0 -- -- 94
2018-09-24 00:00:00 14.3 0 Calma 8 Norte 0 -- -- 92
2018-09-23 23:00:00 15 7 Norte 12 Norte 0 -- -- 91
2018-09-23 22:00:00 15.8 6 Norte 18 Norte 0 -- -- 86
2018-09-23 21:00:00 17.3 7 Norte 14 Norte 0 -- -- 79
2018-09-23 20:00:00 19.6 6 Norte 15 Norte 0 -- -- 59
2018-09-23 19:00:00 21.9 6 Norte 14 Norte 0 -- -- 53
2018-09-23 18:00:00 25.9 6 Norte 15 Norte 0 -- -- 37
2018-09-23 17:00:00 26.3 5 Nordeste 18 Norte 0 -- -- 38
2018-09-23 16:00:00 26.1 6 Nordeste 18 Nordeste 0 -- -- 43
2018-09-23 15:00:00 26.1 5 Nordeste 18 Este 0 -- -- 48
2018-09-23 14:00:00 26.5 5 Nordeste 14 Norte 0 -- -- 50
2018-09-23 13:00:00 26.2 4 Sudeste 11 Sur 0 -- -- 49
2018-09-23 12:00:00 26.8 4 Sur 10 Sudoeste 0 -- -- 45
2018-09-23 11:00:00 24.7 6 Sur 9 Sudeste 0 -- -- 52
2018-09-23 10:00:00 22.7 3 Sur 6 Sur 0 -- -- 57
2018-09-23 09:00:00 17.7 0 Calma 5 Norte 0 -- -- 71
2018-09-23 08:00:00 16.7 0 Calma 3 Sur 0 -- -- 74
2018-09-23 07:00:00 16.6 0 Calma 5 Sur 0 -- -- 74
2018-09-23 06:00:00 16.7 0 Calma 5 Nordeste 0 -- -- 75
2018-09-23 05:00:00 16.9 0 Calma 4 Sudeste 0 -- -- 74
2018-09-23 04:00:00 17.4 0 Calma 4 Noroeste 0 -- -- 70
2018-09-23 03:00:00 17 2 Norte 4 Noroeste 0 -- -- 78
2018-09-23 02:00:00 16.7 0 Calma 3 Noroeste 0 -- -- 80
2018-09-23 01:00:00 17 0 Calma 5 Norte 0 -- -- 79
2018-09-23 00:00:00 17.6 0 Calma 10 Norte 0 -- -- 78
2018-09-22 23:00:00 18.2 7 Norte 11 Norte 0 -- -- 72
2018-09-22 22:00:00 19.4 8 Norte 12 Norte 0 -- -- 64
2018-09-22 21:00:00 19.9 8 Norte 12 Norte 0 -- -- 60
2018-09-22 20:00:00 21 7 Norte 13 Norte 0 -- -- 57
2018-09-22 19:00:00 23.7 5 Norte 15 Nordeste 0 -- -- 49
2018-09-22 18:00:00 26.6 4 Nordeste 13 Nordeste 0 -- -- 47
2018-09-22 17:00:00 27.4 4 Sudeste 13 Este 0 -- -- 45
2018-09-22 16:00:00 26.3 5 Sudeste 13 Sudeste 0 -- -- 48
2018-09-22 15:00:00 25.1 4 Sudeste 12 Norte 0 -- -- 52
2018-09-22 14:00:00 24.9 5 Nordeste 13 Sudoeste 0 -- -- 53
2018-09-22 13:00:00 25.4 7 Sudoeste 15 Sur 0 -- -- 48
2018-09-22 12:00:00 24.1 8 Sur 14 Sur 0 -- -- 55
2018-09-22 11:00:00 22.9 5 Sur 8 Sur 0 -- -- 58
2018-09-22 10:00:00 21.2 2 Sur 6 Sur 0 -- -- 61
2018-09-22 09:00:00 15.6 0 Calma 3 Sudeste 0 -- -- 77
2018-09-22 08:00:00 15 0 Calma 7 Noroeste 0 -- -- 78
2018-09-22 07:00:00 15.7 4 Noroeste 5 Sudoeste 0 -- -- 76
2018-09-22 06:00:00 15.5 0 Calma 6 Norte 0 -- -- 77
2018-09-22 05:00:00 15.1 3 Norte 6 Norte 0 -- -- 78
2018-09-22 04:00:00 15.3 3 Norte 6 Norte 0 -- -- 78
2018-09-22 03:00:00 15 0 Calma 5 Noroeste 0 -- -- 78
2018-09-22 02:00:00 15.2 2 Norte 6 Norte 0 -- -- 77
2018-09-22 01:00:00 15.1 0 Calma 5 Sur 0 -- -- 80
2018-09-22 00:00:00 15.1 4 Norte 7 Norte 0 -- -- 85
2018-09-21 23:00:00 14.9 0 Calma 7 Norte 0 -- -- 86
2018-09-21 22:00:00 15 4 Norte 9 Norte 0 -- -- 87
2018-09-21 21:00:00 15.9 5 Norte 8 Norte 0 -- -- 79
2018-09-21 20:00:00 16.9 6 Norte 9 Norte 0 -- -- 76
2018-09-21 19:00:00 19 2 Norte 10 Norte 0 -- -- 68
2018-09-21 18:00:00 18.8 4 Norte 11 Nordeste 0 -- -- 70
2018-09-21 17:00:00 18.9 3 Nordeste 13 Nordeste 0 -- -- 70
2018-09-21 16:00:00 19.3 4 Este 13 Sudeste 0 -- -- 68
2018-09-21 15:00:00 18.7 4 Sur 9 Sudeste 0 -- -- 70
2018-09-21 14:00:00 19.1 3 Sur 10 Sur 0 -- -- 66
2018-09-21 13:00:00 17.7 4 Sur 8 Sudoeste 0 -- -- 68
2018-09-21 12:00:00 16.6 3 Sur 10 Sudoeste 0 -- -- 68
2018-09-21 11:00:00 15.3 4 Sur 9 Sur 0 -- -- 72
2018-09-21 10:00:00 13.1 3 Sudoeste 9 Sudeste 0 -- -- 82
2018-09-21 09:00:00 12.5 4 Sudoeste 12 Norte 0 -- -- 82
2018-09-21 08:00:00 11.5 4 Norte 8 Norte 0 -- -- 86
2018-09-21 07:00:00 11 2 Noroeste 11 Norte 0 -- -- 87
2018-09-21 06:00:00 10.9 4 Noroeste 10 Noroeste 0 -- -- 88
2018-09-21 05:00:00 11.4 2 Norte 8 Norte 0 -- -- 85
2018-09-21 04:00:00 11.3 3 Norte 9 Nordeste 0 -- -- 83
2018-09-21 03:00:00 12.6 4 Sudeste 10 Sur 0 -- -- 78
2018-09-21 02:00:00 12 5 Norte 9 Norte 0 -- -- 75
2018-09-21 01:00:00 12.9 2 Norte 10 Norte 0 -- -- 68
2018-09-21 00:00:00 13.9 4 Norte 7 Norte 0 -- -- 64
2018-09-20 23:00:00 14 3 Norte 5 Noroeste 0 -- -- 76
2018-09-20 22:00:00 14.2 2 Norte 19 Norte 0 -- -- 80
2018-09-20 21:00:00 16.1 9 Norte 18 Noroeste 0 -- -- 72
2018-09-20 20:00:00 19.6 5 Nordeste 17 Norte 0 -- -- 38
2018-09-20 19:00:00 22.1 5 Este 19 Oeste 0 -- -- 33
2018-09-20 18:00:00 22.2 6 Norte 22 Sudoeste 0 -- -- 37
2018-09-20 17:00:00 24.9 5 Sudoeste 20 Norte 0 -- -- 34
2018-09-20 16:00:00 25.4 8 Nordeste 23 Noroeste 0 -- -- 35
2018-09-20 15:00:00 25.1 6 Sur 23 Noroeste 0 -- -- 41
2018-09-20 14:00:00 25.9 6 Sudeste 23 Sur 0 -- -- 36
2018-09-20 13:00:00 23.8 13 Sur 23 Sur 0 -- -- 43
2018-09-20 12:00:00 24.1 8 Sur 13 Sur 0 -- -- 40
2018-09-20 11:00:00 22.1 4 Sur 6 Sur 0 -- -- 47
2018-09-20 10:00:00 19.4 0 Calma 5 Sur 0 -- -- 53
2018-09-20 09:00:00 15.5 0 Calma 8 Norte 0 -- -- 56
2018-09-20 08:00:00 13.9 2 Este 13 Sur 0 -- -- 60
2018-09-20 07:00:00 14.8 0 Calma 9 Norte 0 -- -- 58
2018-09-20 06:00:00 15.9 3 Norte 9 Sudoeste 0 -- -- 56
2018-09-20 05:00:00 15.7 4 Norte 12 Sur 0 -- -- 53
2018-09-20 04:00:00 15.3 3 Norte 7 Norte 0 -- -- 51
2018-09-20 03:00:00 14.7 3 Norte 5 Noroeste 0 -- -- 60
2018-09-20 02:00:00 13.6 2 Norte 4 Noroeste 0 -- -- 73
2018-09-20 01:00:00 14.3 3 Norte 6 Norte 0 -- -- 71
2018-09-20 00:00:00 15.1 5 Norte 13 Noroeste 0 -- -- 69
2018-09-19 23:00:00 16.1 4 Norte 8 Norte 0 -- -- 61
2018-09-19 22:00:00 15.7 3 Norte 10 Norte 0 -- -- 64
2018-09-19 21:00:00 16.6 9 Norte 12 Norte 0 -- -- 61
2018-09-19 20:00:00 17.7 6 Norte 13 Norte 0 -- -- 58
2018-09-19 19:00:00 20.9 5 Norte 12 Norte 0 -- -- 48
2018-09-19 18:00:00 23.5 4 Nordeste 14 Nordeste 0 -- -- 47
2018-09-19 17:00:00 23.8 6 Nordeste 15 Nordeste 0 -- -- 50
2018-09-19 16:00:00 23.8 5 Nordeste 12 Este 0 -- -- 49
2018-09-19 15:00:00 22.8 4 Nordeste 13 Este 0 -- -- 54
2018-09-19 14:00:00 21.6 4 Sudeste 11 Sudeste 0 -- -- 58
2018-09-19 13:00:00 20.6 5 Sudeste 11 Sur 0 -- -- 57
2018-09-19 12:00:00 20.8 5 Sur 10 Sur 0 -- -- 58
2018-09-19 11:00:00 20.1 4 Sur 10 Sur 0 -- -- 54
2018-09-19 10:00:00 19.6 0 Calma 10 Sur 0 -- -- 55
2018-09-19 09:00:00 14.3 3 Nordeste 7 Norte 0 -- -- 70
2018-09-19 08:00:00 10.9 2 Nordeste 6 Sudoeste 0 -- -- 95
2018-09-19 07:00:00 10.2 2 Noroeste 4 Oeste 0 -- -- 92
2018-09-19 06:00:00 12.2 0 Calma 5 Norte 0 -- -- 75
2018-09-19 05:00:00 12.4 0 Calma 6 Norte 0 -- -- 78
2018-09-19 04:00:00 14.8 4 Noroeste 10 Norte 0 -- -- 69
2018-09-19 03:00:00 15.5 6 Sudoeste 13 Oeste 0 -- -- 67
2018-09-19 02:00:00 12.3 3 Noroeste 5 Noroeste 0 -- -- 93
2018-09-19 01:00:00 12.9 3 Norte 6 Nordeste 0 -- -- 92
2018-09-19 00:00:00 13.7 0 Calma 12 Norte 0 -- -- 89
2018-09-18 23:00:00 15.1 5 Norte 10 Norte 0 -- -- 85
2018-09-18 22:00:00 16 5 Norte 6 Norte 0 -- -- 82
2018-09-18 21:00:00 16.2 4 Norte 12 Norte 0 -- -- 77
2018-09-18 20:00:00 18.7 5 Norte 12 Norte 0 -- -- 65
2018-09-18 19:00:00 21.3 4 Norte 17 Nordeste 0 -- -- 46
2018-09-18 18:00:00 22.5 8 Norte 19 Noroeste 0 -- -- 42
2018-09-18 17:00:00 23.6 4 Nordeste 21 Norte 0 -- -- 42
2018-09-18 16:00:00 22.6 6 Norte 12 Sudeste 0 -- -- 51
2018-09-18 15:00:00 23 7 Sudeste 14 Sudeste 0 -- -- 51
2018-09-18 14:00:00 23.5 7 Sur 23 Sur 0 -- -- 43
2018-09-18 13:00:00 22.9 6 Sur 15 Sudeste 0 -- -- 47
2018-09-18 12:00:00 22.5 9 Sur 17 Sur 0 -- -- 43
2018-09-18 11:00:00 20.6 6 Sur 12 Sur 0 -- -- 49
2018-09-18 10:00:00 18.6 2 Sur 6 Sur 0 -- -- 47
2018-09-18 09:00:00 14.1 2 Sudeste 9 Norte 0 -- -- 59
2018-09-18 08:00:00 14.2 4 Norte 9 Noroeste 0 -- -- 56
2018-09-18 07:00:00 13.6 5 Noroeste 9 Noroeste 0 -- -- 63
2018-09-18 06:00:00 13.6 4 Norte 6 Norte 0 -- -- 63
2018-09-18 05:00:00 13.5 3 Norte 12 Noroeste 0 -- -- 60
2018-09-18 04:00:00 14.8 5 Norte 10 Norte 0 -- -- 58
2018-09-18 03:00:00 14.8 0 Calma 8 Noroeste 0 -- -- 59
2018-09-18 02:00:00 15.4 0 Calma 9 Noroeste 0 -- -- 55
2018-09-18 01:00:00 16.3 4 Noroeste 8 Noroeste 0 -- -- 52
2018-09-18 00:00:00 15.7 2 Este 6 Norte 0 -- -- 58
2018-09-17 23:00:00 16.2 3 Norte 10 Norte 0 -- -- 59
2018-09-17 22:00:00 17.1 4 Norte 15 Norte 0 -- -- 55
2018-09-17 21:00:00 18.1 6 Norte 23 Noroeste 0 -- -- 50
2018-09-17 20:00:00 21.1 8 Norte 18 Este 0 -- -- 39
2018-09-17 19:00:00 24.7 8 Sudoeste 28 Sudoeste 0 -- -- 35
2018-09-17 18:00:00 25.6 9 Oeste 24 Sudoeste 0 -- -- 34
2018-09-17 17:00:00 24.6 10 Oeste 33 Sudoeste 0 -- -- 37
2018-09-17 16:00:00 26.7 8 Sudoeste 33 Sudoeste 0 -- -- 36
2018-09-17 15:00:00 25.7 9 Oeste 29 Sudoeste 0 -- -- 40
2018-09-17 14:00:00 25.5 10 Sudoeste 28 Sur 0 -- -- 40
2018-09-17 13:00:00 26 10 Sur 26 Sur 0 -- -- 42
2018-09-17 12:00:00 24.6 14 Sur 28 Sur 0 -- -- 39
2018-09-17 11:00:00 23.2 15 Sur 27 Sur 0 -- -- 40
2018-09-17 10:00:00 22 10 Sur 24 Oeste 0 -- -- 41
2018-09-17 09:00:00 18.6 9 Sudoeste 25 Sudoeste 0 -- -- 47
2018-09-17 08:00:00 18.3 13 Sudoeste 27 Sudoeste 0 -- -- 47
2018-09-17 07:00:00 18.6 13 Sudoeste 26 Oeste 0 -- -- 46
2018-09-17 06:00:00 17.7 12 Sudoeste 23 Sudoeste 0 -- -- 50
2018-09-17 05:00:00 17.2 8 Sudoeste 21 Sur 0 -- -- 55
2018-09-17 04:00:00 19 12 Sudoeste 24 Oeste 0 -- -- 49
2018-09-17 03:00:00 18.2 6 Oeste 13 Sudoeste 0 -- -- 55
2018-09-17 02:00:00 18.5 4 Noroeste 18 Oeste 0 -- -- 50
2018-09-17 01:00:00 17 5 Noroeste 10 Oeste 0 -- -- 53
2018-09-17 00:00:00 17.5 3 Norte 6 Norte 0 -- -- 49
2018-09-16 23:00:00 17 2 Norte 6 Norte 0 -- -- 75
2018-09-16 22:00:00 17 4 Norte 6 Norte 0 -- -- 87
2018-09-16 21:00:00 17.3 0 Calma 6 Norte 0 -- -- 85
2018-09-16 20:00:00 18.8 3 Norte 6 Norte 0 -- -- 81
2018-09-16 19:00:00 23.6 4 Oeste 8 Nordeste 0 -- -- 65
2018-09-16 18:00:00 23.2 4 Noroeste 9 Nordeste 0 -- -- 67
2018-09-16 17:00:00 23.1 4 Sudeste 9 Este 0 -- -- 66
2018-09-16 16:00:00 22.5 3 Sudeste 10 Sudeste 0 -- -- 67
2018-09-16 15:00:00 23.1 3 Nordeste 11 Sur 0 -- -- 63
2018-09-16 14:00:00 22.3 5 Sur 11 Sur 0 -- -- 67
2018-09-16 13:00:00 21.3 5 Sur 9 Sur 0 -- -- 65
2018-09-16 12:00:00 23.9 5 Sur 10 Sur 0 -- -- 56
2018-09-16 11:00:00 23.9 5 Sur 14 Sur 0 -- -- 57
2018-09-16 10:00:00 22.4 3 Sur 5 Noroeste 0 -- -- 59
2018-09-16 09:00:00 16.4 3 Noroeste 6 Norte 0 -- -- 78
2018-09-16 08:00:00 15.3 2 Noroeste 4 Nordeste 0 -- -- 83
2018-09-16 07:00:00 15.5 0 Calma 6 Norte 0 -- -- 82
2018-09-16 06:00:00 15.6 0 Calma 5 Norte 0 -- -- 80
2018-09-16 05:00:00 16.3 0 Calma 6 Nordeste 0 -- -- 76
2018-09-16 04:00:00 17.7 4 Norte 8 Norte 0 -- -- 69
2018-09-16 03:00:00 18.2 4 Norte 7 Norte 0 -- -- 68
2018-09-16 02:00:00 17.6 3 Norte 4 Norte 0 -- -- 74
2018-09-16 01:00:00 17.6 0 Calma 8 Norte 0 -- -- 75
2018-09-16 00:00:00 17.9 2 Sudeste 13 Norte 0 -- -- 73
2018-09-15 23:00:00 19 8 Norte 11 Noroeste 0 -- -- 69
2018-09-15 22:00:00 19.1 6 Norte 10 Noroeste 0 -- -- 70
2018-09-15 21:00:00 19.8 8 Norte 14 Norte 0 -- -- 68
2018-09-15 20:00:00 20.9 6 Norte 10 Noroeste 0 -- -- 63
2018-09-15 19:00:00 24.5 6 Norte 15 Norte 0 -- -- 52
2018-09-15 18:00:00 26.2 6 Norte 13 Nordeste 0 -- -- 50
2018-09-15 17:00:00 26.9 5 Nordeste 13 Nordeste 0 -- -- 49
2018-09-15 16:00:00 27.2 5 Nordeste 23 Sur 0 -- -- 51
2018-09-15 15:00:00 27.6 9 Sur 23 Sur 0 -- -- 43
2018-09-15 14:00:00 26.9 12 Sur 26 Sur 0 -- -- 44
2018-09-15 13:00:00 25.7 12 Sur 24 Sur 0 -- -- 46
2018-09-15 12:00:00 24.7 11 Sur 26 Sur 0 -- -- 47
2018-09-15 11:00:00 23.4 9 Sur 23 Sur 0 -- -- 48
2018-09-15 10:00:00 21.1 3 Nordeste 13 Noroeste 0 -- -- 57
2018-09-15 09:00:00 18 5 Nordeste 17 Norte 0 -- -- 64
2018-09-15 08:00:00 17.7 4 Oeste 14 Sur 0 -- -- 65
2018-09-15 07:00:00 17.1 3 Sudeste 14 Sudoeste 0 -- -- 69
2018-09-15 06:00:00 17.7 3 Nordeste 12 Sur 0 -- -- 68
2018-09-15 05:00:00 16.5 3 Oeste 12 Sudeste 0 -- -- 74
2018-09-15 04:00:00 16.3 3 Sudeste 15 Oeste 0 -- -- 77
2018-09-15 03:00:00 13.3 0 Calma 6 Norte 0 -- -- 96
2018-09-15 02:00:00 13.6 2 Norte 6 Noroeste 0 -- -- 95
2018-09-15 01:00:00 14.2 3 Noroeste 4 Noroeste 0 -- -- 95
2018-09-15 00:00:00 14.6 3 Norte 5 Norte 0 -- -- 94